Time;durP1;ratioP1;P1;durP2;ratioP2;P2;SDS_P1;SDS_P2;PMS_P1;PMS_P2;Temp;Humidity;BMP_temperature;BMP_pressure;BME280_temperature;BME280_humidity;BME280_pressure;Samples;Min_cycle;Max_cycle;Signal;HPM_P1;HPM_P2
2021/10/30 12:03:03;;;;;;;13.80;10.93;;;12.70;99.90;;;;;;4997079;27;2115209;-76
2021/10/30 12:05:33;;;;;;;13.20;10.13;;;12.70;99.90;;;;;;5045325;28;20045;-79
2021/10/30 12:08:08;;;;;;;12.80;10.03;;;12.70;99.90;;;;;;5049651;28;20049;-77
2021/10/30 12:10:34;;;;;;;13.60;10.27;;;12.70;99.90;;;;;;5045389;28;20037;-79
2021/10/30 12:13:09;;;;;;;10.60;9.10;;;12.70;99.90;;;;;;5037495;28;20436;-76
2021/10/30 12:15:38;;;;;;;12.90;10.10;;;12.80;99.90;;;;;;5045804;28;20045;-73
2021/10/30 12:18:04;;;;;;;13.80;9.40;;;12.80;99.90;;;;;;5036507;28;20420;-73
2021/10/30 12:20:29;;;;;;;12.80;9.23;;;12.90;99.90;;;;;;5034816;28;20091;-78
2021/10/30 12:22:57;;;;;;;11.53;9.87;;;13.00;99.90;;;;;;5037183;28;20044;-75
2021/10/30 12:25:28;;;;;;;9.47;7.80;;;13.00;99.90;;;;;;5037913;28;20455;-79
2021/10/30 12:27:56;;;;;;;9.25;7.97;;;13.00;99.90;;;;;;5036882;28;20041;-79
2021/10/30 12:30:26;;;;;;;10.93;8.20;;;13.10;99.90;;;;;;5035612;28;20106;-73
2021/10/30 12:32:53;;;;;;;11.47;8.20;;;13.20;99.90;;;;;;5029593;28;20029;-78
2021/10/30 12:35:27;;;;;;;10.27;7.77;;;13.20;99.90;;;;;;5035816;28;20397;-79
2021/10/30 12:37:54;;;;;;;8.53;7.20;;;13.30;99.90;;;;;;5035352;28;20126;-84
2021/10/30 12:40:35;;;;;;;8.20;7.03;;;13.30;99.90;;;;;;5034516;28;20044;-74
2021/10/30 12:43:02;;;;;;;;;;;13.40;99.90;;;;;;5056071;28;20048;-75
2021/10/30 12:45:44;;;;;;;9.17;7.17;;;13.30;99.90;;;;;;5052655;28;20500;-75
2021/10/30 12:48:15;;;;;;;10.20;7.47;;;13.40;99.90;;;;;;5034573;28;20076;-77
2021/10/30 12:50:41;;;;;;;7.50;6.72;;;13.40;99.90;;;;;;5035190;28;20475;-77
2021/10/30 12:53:22;;;;;;;10.40;7.37;;;13.40;99.90;;;;;;5037947;28;20068;-77
2021/10/30 12:56:01;;;;;;;11.15;7.65;;;13.40;99.90;;;;;;5032059;28;20052;-79
2021/10/30 12:58:40;;;;;;;8.67;7.67;;;13.40;99.90;;;;;;5035627;28;20485;-77
2021/10/30 13:01:23;;;;;;;11.37;8.97;;;13.40;99.90;;;;;;5035702;28;20053;-81
2021/10/30 13:03:59;;;;;;;9.03;7.33;;;13.40;99.90;;;;;;5049944;28;20056;-75
2021/10/30 13:06:26;;;;;;;8.73;7.43;;;13.40;99.90;;;;;;5035145;28;20041;-79
2021/10/30 13:08:53;;;;;;;9.83;7.20;;;13.40;99.90;;;;;;5036512;28;20127;-78
2021/10/30 13:11:22;;;;;;;10.33;6.53;;;13.50;99.90;;;;;;5037396;28;20037;-77
2021/10/30 13:13:50;;;;;;;8.93;7.63;;;13.50;99.90;;;;;;5043753;28;20039;-77
2021/10/30 13:16:16;;;;;;;10.90;9.20;;;13.50;99.90;;;;;;5015724;28;20076;-72
2021/10/30 13:18:43;;;;;;;11.53;7.97;;;13.50;99.90;;;;;;5041979;28;20370;-75
2021/10/30 13:21:22;;;;;;;8.53;6.43;;;13.50;99.90;;;;;;5011745;28;20050;-80
2021/10/30 13:23:52;;;;;;;9.23;6.23;;;13.60;99.90;;;;;;5010953;28;20431;-82
2021/10/30 13:26:19;;;;;;;8.53;6.63;;;13.60;99.90;;;;;;4993246;28;20049;-77
2021/10/30 13:28:47;;;;;;;7.97;5.87;;;13.60;99.90;;;;;;4994428;28;20050;-79
2021/10/30 13:31:13;;;;;;;8.00;5.47;;;13.60;99.90;;;;;;4993030;28;20042;-77
2021/10/30 13:33:38;;;;;;;6.40;5.23;;;13.60;99.90;;;;;;4993704;28;20406;-77
2021/10/30 13:36:04;;;;;;;8.13;6.90;;;13.60;99.90;;;;;;4993424;28;20060;-80
2021/10/30 13:38:30;;;;;;;6.63;5.20;;;13.60;99.90;;;;;;4993643;28;20050;-83
2021/10/30 13:40:57;;;;;;;8.50;5.37;;;13.60;99.90;;;;;;5012587;28;20037;-87
2021/10/30 13:43:22;;;;;;;6.87;4.87;;;13.70;99.90;;;;;;5016089;28;20045;-82
2021/10/30 13:45:48;;;;;;;9.53;5.73;;;13.70;99.90;;;;;;5000823;28;20044;-86
2021/10/30 13:48:13;;;;;;;8.73;5.60;;;13.70;99.90;;;;;;5033920;28;20042;-76
2021/10/30 13:50:39;;;;;;;7.57;5.17;;;13.80;99.90;;;;;;5028242;28;20102;-82
2021/10/30 13:53:06;;;;;;;6.80;4.93;;;13.90;99.90;;;;;;5030466;28;20033;-81
2021/10/30 13:55:32;;;;;;;6.30;4.80;;;13.90;99.90;;;;;;5030610;28;20037;-81
2021/10/30 13:57:57;;;;;;;8.20;7.40;;;13.90;99.90;;;;;;5029419;28;20367;-80
2021/10/30 14:00:23;;;;;;;9.10;4.77;;;14.00;99.90;;;;;;5027730;28;20076;-83
2021/10/30 14:02:48;;;;;;;6.97;5.20;;;14.00;99.90;;;;;;5028318;28;20155;-73
2021/10/30 14:05:18;;;;;;;6.57;5.40;;;14.00;99.90;;;;;;5023511;28;20073;-75
2021/10/30 14:07:44;;;;;;;6.47;4.73;;;14.00;99.90;;;;;;5038711;28;20167;-78
2021/10/30 14:10:09;;;;;;;8.80;5.30;;;14.10;99.90;;;;;;5039855;28;20502;-80
2021/10/30 14:12:35;;;;;;;6.53;4.03;;;14.10;99.90;;;;;;5028492;28;20043;-76
2021/10/30 14:15:01;;;;;;;11.73;5.23;;;14.10;99.90;;;;;;5031799;28;20558;-75
2021/10/30 14:17:26;;;;;;;8.77;5.67;;;14.20;99.90;;;;;;5031883;28;20521;-83
2021/10/30 14:19:52;;;;;;;5.90;5.30;;;14.20;99.90;;;;;;5032688;28;20581;-83
2021/10/30 14:22:17;;;;;;;9.20;5.40;;;14.20;99.90;;;;;;5049289;28;20689;-73
2021/10/30 14:24:43;;;;;;;5.70;4.90;;;14.30;99.90;;;;;;5031460;28;20053;-78
2021/10/30 14:27:08;;;;;;;7.80;5.63;;;14.30;99.90;;;;;;5049213;28;20049;-83
2021/10/30 14:29:34;;;;;;;7.30;6.07;;;14.30;99.90;;;;;;5031598;28;20049;-77
2021/10/30 14:32:00;;;;;;;8.87;4.77;;;14.30;99.90;;;;;;5033144;28;20093;-83
2021/10/30 14:34:28;;;;;;;7.63;5.07;;;14.30;99.90;;;;;;5048938;28;20131;-76
2021/10/30 14:36:54;;;;;;;7.60;4.77;;;14.30;99.90;;;;;;5049531;28;20456;-79
2021/10/30 14:39:20;;;;;;;7.57;5.57;;;14.20;99.90;;;;;;5031405;28;20049;-73
2021/10/30 14:41:45;;;;;;;7.57;5.57;;;14.20;99.90;;;;;;5032264;28;20049;-82
2021/10/30 14:44:11;;;;;;;7.20;5.30;;;14.20;99.90;;;;;;5049249;28;20095;-75
2021/10/30 14:46:37;;;;;;;6.40;4.47;;;14.20;99.90;;;;;;5050049;28;20055;-80
2021/10/30 14:49:02;;;;;;;6.83;5.00;;;14.10;99.90;;;;;;5049144;28;20044;-71
2021/10/30 14:51:28;;;;;;;6.93;5.30;;;14.10;99.90;;;;;;5031043;28;20048;-73
2021/10/30 14:53:54;;;;;;;7.80;4.83;;;14.10;99.90;;;;;;5032951;28;20459;-84
2021/10/30 14:56:20;;;;;;;7.67;5.13;;;14.10;99.90;;;;;;5049432;28;20067;-79
2021/10/30 14:58:46;;;;;;;5.63;4.37;;;14.20;99.90;;;;;;5031735;28;20045;-75
2021/10/30 15:01:13;;;;;;;7.30;5.07;;;14.20;99.90;;;;;;5030572;28;20102;-76
2021/10/30 15:03:40;;;;;;;5.27;4.27;;;14.20;99.90;;;;;;5030248;28;20057;-79
2021/10/30 15:06:05;;;;;;;8.30;4.77;;;14.20;99.90;;;;;;5032096;28;20489;-85
